createdAt,value
2023-03-23T16:00:24.749Z,14.49
2023-03-23T16:03:18.805Z,14.44
2023-03-23T16:06:06.939Z,14.37
2023-03-23T16:08:55.976Z,14.13
2023-03-23T16:11:43.992Z,14.17
2023-03-23T16:14:31.595Z,14.13
2023-03-23T16:17:21.973Z,13.88
2023-03-23T16:20:15.741Z,13.81
2023-03-23T16:23:03.528Z,13.68
2023-03-23T16:25:51.270Z,13.36
2023-03-23T16:28:39.498Z,13.50
2023-03-23T16:31:27.227Z,13.33
2023-03-23T16:34:15.714Z,13.20
2023-03-23T16:37:03.421Z,13.13
2023-03-23T16:39:51.163Z,13.00
2023-03-23T16:42:38.740Z,12.93
2023-03-23T16:45:27.541Z,12.64
2023-03-23T16:48:16.810Z,12.42
2023-03-23T16:51:04.827Z,12.41
2023-03-23T16:53:52.458Z,12.29
2023-03-23T16:56:40.468Z,12.19
2023-03-23T16:59:29.163Z,12.08
2023-03-23T17:02:17.137Z,11.94
2023-03-23T17:05:04.961Z,11.84
2023-03-23T17:07:53.181Z,11.67
2023-03-23T17:10:41.955Z,11.51
2023-03-23T17:13:32.091Z,11.36
2023-03-23T17:16:19.739Z,11.33
2023-03-23T17:19:07.847Z,11.34
2023-03-23T17:21:55.587Z,11.40
2023-03-23T17:24:44.148Z,11.06
2023-03-23T17:27:32.315Z,11.20
2023-03-23T17:30:20.215Z,11.03
2023-03-23T17:33:12.631Z,10.97
2023-03-23T17:36:03.161Z,10.79
2023-03-23T17:39:02.390Z,10.91
2023-03-23T17:41:50.160Z,10.79
2023-03-23T17:44:38.217Z,10.74
2023-03-23T17:47:26.327Z,10.65
2023-03-23T17:50:14.387Z,10.21
2023-03-23T17:53:02.338Z,10.44
2023-03-23T17:55:53.564Z,10.44
2023-03-23T17:58:41.285Z,10.30
2023-03-23T18:01:29.009Z,10.45
2023-03-23T18:04:17.461Z,10.27
2023-03-23T18:07:07.542Z,10.24
2023-03-23T18:10:01.613Z,10.21
2023-03-23T18:12:51.667Z,10.12
2023-03-23T18:15:45.671Z,10.11
2023-03-23T18:18:37.461Z,9.98
2023-03-23T18:21:26.288Z,9.85
2023-03-23T18:24:15.546Z,9.92
2023-03-23T18:27:03.900Z,9.72
2023-03-23T18:29:53.981Z,9.58
2023-03-23T18:32:42.538Z,9.64
2023-03-23T18:35:39.630Z,9.63
2023-03-23T18:38:28.979Z,9.68
2023-03-23T18:41:18.411Z,9.73
2023-03-23T18:44:06.541Z,9.79
2023-03-23T18:46:54.381Z,9.38
2023-03-23T18:49:42.043Z,9.30
2023-03-23T18:52:33.121Z,9.17
2023-03-23T18:55:22.098Z,9.02
2023-03-23T18:58:10.639Z,8.97
2023-03-23T19:00:58.545Z,9.00
2023-03-23T19:03:46.893Z,8.99
2023-03-23T19:06:37.731Z,8.76
2023-03-23T19:09:25.761Z,8.71
2023-03-23T19:12:16.102Z,8.59
2023-03-23T19:15:07.272Z,8.67
2023-03-23T19:17:56.688Z,8.58
2023-03-23T19:21:12.710Z,8.48
2023-03-23T19:23:55.289Z,8.39
2023-03-23T19:26:45.203Z,8.25
2023-03-23T19:29:33.224Z,8.08
2023-03-23T19:32:21.208Z,8.16
2023-03-23T19:35:10.179Z,7.98
2023-03-23T19:37:58.025Z,7.91
2023-03-23T19:40:58.485Z,8.02
2023-03-23T19:43:56.458Z,8.08
2023-03-23T19:46:49.271Z,7.86
2023-03-23T19:49:37.300Z,8.12
2023-03-23T19:52:25.097Z,8.00
2023-03-23T19:55:12.985Z,7.95
2023-03-23T19:58:00.694Z,8.02
2023-03-23T20:00:48.894Z,8.03
2023-03-23T20:03:37.123Z,7.77
2023-03-23T20:06:24.814Z,7.94
2023-03-23T20:09:12.425Z,7.89
2023-03-23T20:12:00.193Z,7.72
2023-03-23T20:14:47.879Z,7.79
2023-03-23T20:17:35.660Z,7.69
2023-03-23T20:20:23.808Z,7.74
2023-03-23T20:23:11.451Z,7.59
2023-03-23T20:26:06.886Z,7.64
2023-03-23T20:28:55.188Z,7.61
2023-03-23T20:31:43.479Z,7.43
2023-03-23T20:34:31.747Z,7.48
2023-03-23T20:37:20.799Z,7.42
2023-03-23T20:40:15.160Z,7.33
2023-03-23T20:43:03.999Z,7.32
2023-03-23T20:45:52.651Z,7.13
2023-03-23T20:48:41.457Z,7.27
2023-03-23T20:51:29.180Z,7.27
2023-03-23T20:54:19.165Z,7.08
2023-03-23T20:57:08.432Z,7.16
2023-03-23T20:59:56.579Z,7.05
2023-03-23T21:02:44.651Z,7.10
2023-03-23T21:05:32.343Z,7.02
2023-03-23T21:08:20.194Z,7.05
2023-03-23T21:11:10.085Z,6.89
2023-03-23T21:13:57.861Z,7.11
2023-03-23T21:16:45.730Z,7.09
2023-03-23T21:19:34.456Z,6.89
2023-03-23T21:22:22.640Z,7.00
2023-03-23T21:25:10.374Z,6.81
2023-03-23T21:27:58.091Z,6.84
2023-03-23T21:30:48.378Z,6.83
2023-03-23T21:33:36.213Z,6.78
2023-03-23T21:36:24.979Z,6.97
2023-03-23T21:39:12.862Z,6.95
2023-03-23T21:42:02.060Z,6.94
2023-03-23T21:44:49.775Z,6.93
2023-03-23T21:47:38.344Z,6.84
2023-03-23T21:50:26.047Z,6.70
2023-03-23T21:53:18.524Z,6.85
2023-03-23T21:56:07.647Z,6.65
2023-03-23T21:58:56.815Z,6.85
2023-03-23T22:01:44.607Z,6.85
2023-03-23T22:04:32.350Z,6.77
2023-03-23T22:07:23.358Z,6.80
2023-03-23T22:10:11.067Z,6.85
2023-03-23T22:12:58.831Z,6.80
2023-03-23T22:15:52.102Z,6.82
2023-03-23T22:18:43.556Z,6.80
2023-03-23T22:21:31.464Z,6.65
2023-03-23T22:24:19.141Z,6.81
2023-03-23T22:27:07.341Z,6.71
2023-03-23T22:29:55.099Z,6.47
2023-03-23T22:32:43.128Z,6.63
2023-03-23T22:35:30.965Z,6.67
2023-03-23T22:38:18.786Z,6.70
2023-03-23T22:41:08.005Z,6.68
2023-03-23T22:43:55.925Z,6.58
2023-03-23T22:46:43.635Z,6.58
2023-03-23T22:49:32.958Z,6.55
2023-03-23T22:52:20.800Z,6.61
2023-03-23T22:55:09.499Z,6.64
2023-03-23T22:57:57.198Z,6.57
2023-03-23T23:00:48.319Z,6.38
2023-03-23T23:03:37.111Z,6.43
2023-03-23T23:06:25.869Z,6.34
2023-03-23T23:09:13.689Z,6.39
2023-03-23T23:12:01.384Z,6.48
2023-03-23T23:14:49.182Z,6.36
2023-03-23T23:17:39.148Z,6.38
2023-03-23T23:20:27.051Z,6.41
2023-03-23T23:23:14.709Z,6.34
2023-03-23T23:26:02.985Z,6.13
2023-03-23T23:28:51.147Z,6.32
2023-03-23T23:31:38.958Z,6.12
2023-03-23T23:34:26.736Z,6.22
2023-03-23T23:37:14.482Z,6.17
2023-03-23T23:40:02.968Z,6.13
2023-03-23T23:42:52.379Z,5.95
2023-03-23T23:45:40.146Z,6.03
2023-03-23T23:48:28.558Z,5.92
2023-03-23T23:51:17.724Z,5.94
2023-03-23T23:54:05.486Z,5.86
2023-03-23T23:56:53.195Z,5.95
2023-03-23T23:59:41.513Z,5.89
